Time;durP1;ratioP1;P1;durP2;ratioP2;P2;SDS_P1;SDS_P2;PMS_P1;PMS_P2;Temp;Humidity;BMP_temperature;BMP_pressure;BME280_temperature;BME280_humidity;BME280_pressure;Samples;Min_cycle;Max_cycle;Signal;HPM_P1;HPM_P2
2022/11/19 00:00:16;;;;;;;2.40;0.50;;;;;;;6.53;100.00;97891.00;4979603;28;20030;-75
2022/11/19 00:02:42;;;;;;;1.30;0.60;;;;;;;6.37;100.00;97873.34;4985856;28;20651;-74
2022/11/19 00:05:07;;;;;;;3.53;0.50;;;;;;;6.40;100.00;97872.13;4984776;28;20038;-75
2022/11/19 00:07:32;;;;;;;3.22;0.70;;;;;;;6.40;100.00;97874.81;4991869;28;20025;-77
2022/11/19 00:09:58;;;;;;;1.30;0.40;;;;;;;6.31;100.00;97856.16;4990069;28;20026;-75
2022/11/19 00:15:07;;;;;;;3.25;0.57;;;;;;;6.44;100.00;97870.66;4988641;28;20531;-75
2022/11/19 00:17:32;;;;;;;0.60;0.40;;;;;;;6.43;100.00;97874.41;4985249;28;20117;-75
2022/11/19 00:19:57;;;;;;;0.47;0.40;;;;;;;6.43;100.00;97877.09;4984674;28;20041;-75
2022/11/19 00:22:23;;;;;;;1.13;0.60;;;;;;;6.52;100.00;97890.16;4994696;28;20108;-75
2022/11/19 00:24:48;;;;;;;2.33;0.80;;;;;;;6.36;100.00;97869.81;4992823;28;20033;-74
2022/11/19 00:27:13;;;;;;;1.48;0.60;;;;;;;6.49;100.00;97889.72;4989883;28;20030;-75
2022/11/19 00:29:38;;;;;;;1.70;0.50;;;;;;;6.46;100.00;97880.19;4989944;28;20022;-75
2022/11/19 00:32:04;;;;;;;1.30;0.70;;;;;;;6.34;100.00;97871.88;4984867;28;20023;-75
2022/11/19 00:34:29;;;;;;;1.55;0.68;;;;;;;6.26;100.00;97865.84;4987404;28;20031;-75
2022/11/19 00:36:54;;;;;;;2.45;0.82;;;;;;;6.37;100.00;97886.78;4991676;28;20062;-75
2022/11/19 00:39:20;;;;;;;2.10;0.68;;;;;;;6.22;100.00;97851.97;4992279;28;20779;-74
2022/11/19 00:41:45;;;;;;;1.33;0.40;;;;;;;6.35;100.00;97872.72;4989741;28;20052;-74
2022/11/19 00:44:10;;;;;;;4.40;0.55;;;;;;;6.33;100.00;97864.84;4984925;28;20077;-75
2022/11/19 00:46:36;;;;;;;1.02;0.40;;;;;;;6.37;100.00;97870.66;4988947;28;20038;-75
2022/11/19 00:49:02;;;;;;;2.35;0.50;;;;;;;6.44;100.00;97882.25;4985851;28;20029;-76
2022/11/19 00:51:29;;;;;;;0.77;0.47;;;;;;;6.58;100.00;97896.59;5004741;28;20028;-75
2022/11/19 00:53:55;;;;;;;2.40;0.85;;;;;;;6.53;100.00;97888.28;4991407;28;20034;-76
2022/11/19 00:56:22;;;;;;;1.50;0.60;;;;;;;6.53;100.00;97882.94;4991325;28;20026;-75
2022/11/19 00:58:48;;;;;;;0.77;0.38;;;;;;;6.48;100.00;97869.25;4975242;28;20030;-75
2022/11/19 01:01:15;;;;;;;0.30;0.20;;;;;;;6.48;100.00;97883.50;4989045;28;20512;-75
2022/11/19 01:03:41;;;;;;;0.50;0.22;;;;;;;6.48;100.00;97874.63;4994709;28;21491;-75
2022/11/19 01:06:08;;;;;;;1.17;0.65;;;;;;;6.51;100.00;97888.47;4989268;28;20022;-75
2022/11/19 01:08:34;;;;;;;0.77;0.40;;;;;;;6.42;100.00;97870.03;4989279;28;20445;-75
2022/11/19 01:11:11;;;;;;;3.28;0.40;;;;;;;6.32;100.00;97865.88;4991624;28;20115;-74
2022/11/19 01:13:37;;;;;;;2.10;0.57;;;;;;;6.33;100.00;97882.81;4990181;28;20514;-74
2022/11/19 01:16:12;;;;;;;0.63;0.50;;;;;;;6.37;100.00;97894.84;4988118;28;20080;-75
2022/11/19 01:18:39;;;;;;;0.80;0.57;;;;;;;6.43;100.00;97906.66;4978726;28;20057;-74
2022/11/19 01:21:06;;;;;;;0.68;0.50;;;;;;;6.38;100.00;97898.34;4989255;28;20551;-76
2022/11/19 01:23:32;;;;;;;1.20;0.40;;;;;;;6.32;100.00;97873.94;4984116;28;20036;-75
2022/11/19 01:25:58;;;;;;;1.15;0.40;;;;;;;6.53;100.00;97901.72;4982067;28;20026;-75
2022/11/19 01:28:23;;;;;;;3.80;0.32;;;;;;;6.47;100.00;97897.13;4983243;28;20038;-75
2022/11/19 01:30:49;;;;;;;2.92;0.50;;;;;;;6.47;100.00;97883.69;4979652;28;20027;-75
2022/11/19 01:33:14;;;;;;;2.30;0.50;;;;;;;6.44;100.00;97882.25;4981401;28;20129;-75
2022/11/19 01:35:40;;;;;;;0.93;0.40;;;;;;;6.49;100.00;97895.91;4986348;28;20084;-75
2022/11/19 01:38:05;;;;;;;2.45;0.45;;;;;;;6.36;100.00;97867.13;4990289;28;20030;-80
2022/11/19 01:40:39;;;;;;;0.77;0.35;;;;;;;6.54;100.00;97895.31;5016453;28;20026;-79
2022/11/19 01:43:04;;;;;;;1.10;0.40;;;;;;;6.43;100.00;97888.66;5005810;28;20033;-79
2022/11/19 01:45:36;;;;;;;1.83;0.57;;;;;;;6.51;100.00;97901.09;5005797;28;20037;-79
2022/11/19 01:48:26;;;;;;;1.90;0.40;;;;;;;6.46;100.00;97890.13;4992595;28;20080;-78
2022/11/19 01:51:07;;;;;;;0.75;0.40;;;;;;;6.37;100.00;97881.41;4992294;28;20527;-81
2022/11/19 01:53:35;;;;;;;1.10;0.50;;;;;;;6.27;100.00;97892.50;4990805;28;20042;-78
2022/11/19 01:56:03;;;;;;;2.45;0.60;;;;;;;6.24;100.00;97875.97;4996695;28;20030;-81
2022/11/19 01:58:41;;;;;;;1.55;0.70;;;;;;;6.33;100.00;97894.38;4989379;28;20026;-78
2022/11/19 02:01:09;;;;;;;1.60;0.70;;;;;;;6.25;100.00;97886.50;4978932;28;20026;-77
2022/11/19 02:03:36;;;;;;;1.73;0.50;;;;;;;6.31;100.00;97899.16;5007132;28;20045;-77
2022/11/19 02:06:02;;;;;;;1.00;0.60;;;;;;;6.23;100.00;97885.84;4987435;28;20117;-80
2022/11/19 02:08:46;;;;;;;1.85;0.70;;;;;;;6.18;100.00;97884.78;4989965;28;20549;-78
2022/11/19 02:11:29;;;;;;;4.13;0.82;;;;;;;6.32;100.00;97903.47;5006624;28;20030;-77
2022/11/19 02:14:02;;;;;;;5.38;0.90;;;;;;;6.29;100.00;97887.78;5006893;28;20030;-78
2022/11/19 02:16:48;;;;;;;1.05;0.55;;;;;;;6.26;100.00;97887.31;4988969;28;20084;-77
2022/11/19 02:19:34;;;;;;;1.40;0.80;;;;;;;6.37;100.00;97905.59;4991065;28;20045;-77
2022/11/19 02:22:36;;;;;;;1.35;0.80;;;;;;;6.46;100.00;97900.88;4989921;28;20026;-77
2022/11/19 02:25:29;;;;;;;1.33;0.73;;;;;;;6.32;100.00;97891.91;4991623;28;20443;-76
2022/11/19 02:28:07;;;;;;;2.10;0.82;;;;;;;6.44;100.00;97902.91;4991692;28;20502;-80
2022/11/19 02:30:38;;;;;;;1.33;0.73;;;;;;;6.39;100.00;97894.63;4987794;28;20041;-75
2022/11/19 02:33:13;;;;;;;3.72;0.85;;;;;;;6.34;100.00;97885.31;4983013;28;20023;-76
2022/11/19 02:36:05;;;;;;;2.50;0.80;;;;;;;6.43;100.00;97903.97;4986858;28;20026;-75
2022/11/19 02:38:52;;;;;;;1.10;0.60;;;;;;;6.43;100.00;97895.91;4991226;28;20030;-76
2022/11/19 02:41:35;;;;;;;1.80;0.70;;;;;;;6.38;100.00;97904.53;4991992;28;20457;-76
2022/11/19 02:47:16;;;;;;;1.17;0.60;;;;;;;6.36;100.00;97901.22;4979352;28;20046;-78
2022/11/19 02:49:46;;;;;;;3.45;1.20;;;;;;;6.31;100.00;97915.28;4990026;28;20030;-76
2022/11/19 02:52:14;;;;;;;1.48;0.90;;;;;;;6.32;100.00;97926.84;4972737;28;20027;-76
2022/11/19 02:54:39;;;;;;;6.28;1.00;;;;;;;6.23;100.00;97909.22;4986735;28;20071;-79
2022/11/19 02:57:05;;;;;;;1.00;0.80;;;;;;;6.21;100.00;97906.72;4986308;28;20030;-77
2022/11/19 03:05:14;;;;;;;3.67;0.98;;;;;;;6.27;100.00;97926.59;4983014;28;20045;-77
2022/11/19 03:07:40;;;;;;;2.38;1.13;;;;;;;6.15;100.00;97907.50;4984729;28;20473;-77
2022/11/19 03:10:08;;;;;;;4.25;0.95;;;;;;;6.23;100.00;97923.47;4991422;28;20030;-78
2022/11/19 03:12:55;;;;;;;2.75;1.35;;;;;;;6.32;100.00;97941.09;4990872;28;20477;-77
2022/11/19 03:18:33;;;;;;;2.75;1.20;;;;;;;6.39;100.00;97940.28;4991159;28;20087;-79
2022/11/19 03:21:12;;;;;;;2.10;1.20;;;;;;;6.38;100.00;97934.09;4987781;28;20066;-79
2022/11/19 03:23:50;;;;;;;8.95;1.50;;;;;;;6.30;100.00;97920.81;4993237;28;20030;-78
2022/11/19 03:26:43;;;;;;;1.98;1.00;;;;;;;6.38;100.00;97930.59;4990394;28;20031;-77
2022/11/19 03:29:11;;;;;;;3.55;1.35;;;;;;;6.13;100.00;97886.22;4986132;28;20034;-77
2022/11/19 03:31:40;;;;;;;2.35;1.20;;;;;;;6.35;100.00;97934.50;4993568;28;20030;-76
2022/11/19 03:34:14;;;;;;;3.22;1.40;;;;;;;6.39;100.00;97934.91;4994796;28;20031;-77
2022/11/19 03:36:42;;;;;;;6.18;1.88;;;;;;;6.17;100.00;97908.16;4993227;28;20113;-77
2022/11/19 03:39:14;;;;;;;3.22;1.63;;;;;;;6.41;100.00;97935.56;4993812;28;20026;-77
2022/11/19 03:41:41;;;;;;;7.05;1.70;;;;;;;6.33;100.00;97933.84;4995630;28;20022;-79
2022/11/19 03:44:29;;;;;;;2.13;1.40;;;;;;;6.44;100.00;97945.91;4994056;28;20033;-77
2022/11/19 03:47:07;;;;;;;2.58;1.30;;;;;;;6.34;100.00;97935.50;4982956;28;20022;-77
2022/11/19 03:49:36;;;;;;;4.20;1.20;;;;;;;6.43;100.00;97949.63;4981654;28;20037;-79
2022/11/19 03:52:14;;;;;;;6.95;1.27;;;;;;;6.35;100.00;97939.88;4989320;28;20023;-78
2022/11/19 03:54:39;;;;;;;1.95;1.17;;;;;;;6.32;100.00;97942.97;4978358;28;20030;-78
2022/11/19 03:57:08;;;;;;;5.18;1.10;;;;;;;6.28;100.00;97941.69;4983201;28;20029;-79
2022/11/19 03:59:33;;;;;;;2.03;1.33;;;;;;;6.41;100.00;97965.13;4997139;28;20354;-77
2022/11/19 04:02:03;;;;;;;2.50;1.23;;;;;;;6.28;100.00;97936.31;4995113;28;20033;-78
2022/11/19 04:04:36;;;;;;;7.45;1.30;;;;;;;5.89;100.00;97879.44;4999992;28;20027;-78
2022/11/19 04:07:13;;;;;;;4.10;1.20;;;;;;;6.33;100.00;97958.03;4992720;28;20117;-79
2022/11/19 04:09:39;;;;;;;6.25;1.10;;;;;;;6.24;100.00;97948.50;4989564;28;20034;-77
2022/11/19 04:12:13;;;;;;;3.08;1.30;;;;;;;6.11;100.00;97933.09;4997401;28;20065;-77
2022/11/19 04:14:38;;;;;;;2.63;1.40;;;;;;;6.13;100.00;97928.34;4994679;28;20025;-79
2022/11/19 04:17:04;;;;;;;1.83;1.17;;;;;;;6.27;100.00;97953.47;4991909;28;20030;-79
2022/11/19 04:19:29;;;;;;;3.83;1.63;;;;;;;6.16;100.00;97949.47;4990045;28;20500;-77
2022/11/19 04:21:54;;;;;;;2.75;1.27;;;;;;;6.08;100.00;97928.97;4993718;28;20041;-79
2022/11/19 04:24:19;;;;;;;2.35;1.30;;;;;;;6.08;100.00;97925.44;4997595;28;20037;-79
2022/11/19 04:26:45;;;;;;;3.38;1.70;;;;;;;6.28;100.00;97972.06;4997923;28;20354;-78
2022/11/19 04:29:10;;;;;;;1.88;1.38;;;;;;;6.19;100.00;97954.44;4985735;28;20145;-77
2022/11/19 04:31:35;;;;;;;4.10;1.30;;;;;;;6.05;100.00;97937.41;4996604;28;20022;-77
2022/11/19 04:34:01;;;;;;;3.95;1.42;;;;;;;6.22;100.00;97955.91;4992675;28;20670;-78
2022/11/19 04:36:26;;;;;;;2.03;1.20;;;;;;;6.05;100.00;97920.44;4998192;28;20057;-78
2022/11/19 04:38:51;;;;;;;2.50;1.27;;;;;;;6.05;100.00;97932.03;4993732;28;20165;-77
2022/11/19 04:41:16;;;;;;;4.03;1.67;;;;;;;6.08;100.00;97941.56;5013405;28;20045;-80
2022/11/19 04:43:42;;;;;;;4.95;1.50;;;;;;;6.07;100.00;97943.41;4995923;28;20081;-76
2022/11/19 04:46:07;;;;;;;2.38;1.30;;;;;;;6.21;100.00;97957.75;4998124;28;20045;-77
2022/11/19 04:48:32;;;;;;;3.13;1.65;;;;;;;6.21;100.00;97960.44;4999480;28;20038;-79
2022/11/19 04:50:58;;;;;;;3.47;1.38;;;;;;;6.25;100.00;97969.75;4988368;28;20063;-79
2022/11/19 04:53:23;;;;;;;4.47;1.30;;;;;;;6.21;100.00;97963.13;4998931;28;20508;-79
2022/11/19 04:55:48;;;;;;;2.20;1.13;;;;;;;6.20;100.00;97957.94;4999098;28;20026;-79
2022/11/19 04:58:14;;;;;;;3.75;1.40;;;;;;;6.21;100.00;97957.75;4993999;28;20094;-79
2022/11/19 05:00:39;;;;;;;3.67;1.77;;;;;;;6.24;100.00;97957.38;4992761;28;20107;-79
2022/11/19 05:03:04;;;;;;;4.15;1.40;;;;;;;6.17;100.00;97950.28;4993521;28;20022;-77
2022/11/19 05:05:30;;;;;;;2.42;1.60;;;;;;;6.11;100.00;97941.16;4995641;28;20026;-80
2022/11/19 05:07:55;;;;;;;5.45;1.90;;;;;;;6.08;100.00;97952.31;4996469;28;20030;-77
2022/11/19 05:10:20;;;;;;;3.72;1.33;;;;;;;6.04;100.00;97946.47;4995446;28;20469;-77
2022/11/19 05:12:46;;;;;;;3.85;1.70;;;;;;;5.93;100.00;97931.72;5002646;28;20053;-77
2022/11/19 05:15:11;;;;;;;4.25;1.42;;;;;;;6.11;100.00;97952.72;4994170;28;20393;-77
2022/11/19 05:17:36;;;;;;;7.35;2.83;;;;;;;6.13;100.00;97957.88;4989924;28;20026;-79
2022/11/19 05:20:02;;;;;;;3.00;1.55;;;;;;;6.00;100.00;97944.38;4988972;28;20023;-79
2022/11/19 05:22:28;;;;;;;4.55;2.03;;;;;;;6.05;100.00;97958.91;4999007;28;20376;-78
2022/11/19 05:24:53;;;;;;;4.93;2.05;;;;;;;6.01;100.00;97951.41;5011307;28;20025;-77
2022/11/19 05:27:18;;;;;;;3.58;1.80;;;;;;;6.13;100.00;97966.81;5005060;28;20293;-78
2022/11/19 05:29:44;;;;;;;2.20;1.60;;;;;;;6.02;100.00;97943.16;4986529;28;20030;-77
2022/11/19 05:32:09;;;;;;;3.55;1.90;;;;;;;6.13;100.00;97952.53;4992142;28;20033;-76
2022/11/19 05:34:34;;;;;;;4.18;2.15;;;;;;;6.08;100.00;97946.94;4990406;28;20547;-77
2022/11/19 05:37:00;;;;;;;3.78;1.90;;;;;;;5.96;100.00;97932.38;4989051;28;20022;-78
2022/11/19 05:39:25;;;;;;;3.60;1.63;;;;;;;6.18;100.00;97963.50;4992603;28;20022;-81
2022/11/19 05:41:51;;;;;;;5.93;2.05;;;;;;;6.21;100.00;97967.66;4989558;28;20666;-82
2022/11/19 05:44:16;;;;;;;3.45;1.92;;;;;;;6.09;100.00;97937.84;4988165;28;20026;-79
2022/11/19 05:46:41;;;;;;;4.30;2.30;;;;;;;6.23;100.00;97960.25;4987149;28;20519;-81
2022/11/19 05:49:07;;;;;;;4.22;2.33;;;;;;;6.29;100.00;97975.59;4988600;28;20022;-80
2022/11/19 05:51:32;;;;;;;7.30;2.50;;;;;;;6.29;100.00;97964.84;4992462;28;20690;-80
2022/11/19 05:53:57;;;;;;;6.28;2.60;;;;;;;6.14;100.00;97946.97;4991317;28;20033;-82
2022/11/19 05:56:22;;;;;;;5.68;2.35;;;;;;;6.28;100.00;97969.38;4992657;28;20392;-79
2022/11/19 05:58:48;;;;;;;5.15;2.70;;;;;;;6.22;100.00;97962.09;4991552;28;20029;-83
2022/11/19 06:01:14;;;;;;;6.65;2.22;;;;;;;6.33;100.00;97977.66;4993211;28;20042;-80
2022/11/19 06:03:39;;;;;;;7.20;2.30;;;;;;;6.21;100.00;97959.59;4992318;28;20117;-78
2022/11/19 06:06:05;;;;;;;11.85;2.83;;;;;;;6.19;100.00;97967.88;5001117;28;20033;-79
2022/11/19 06:08:30;;;;;;;5.18;2.55;;;;;;;6.32;100.00;97985.94;4991824;28;20394;-84
2022/11/19 06:10:56;;;;;;;8.38;2.58;;;;;;;6.19;100.00;97964.34;4993199;28;20023;-79
2022/11/19 06:13:21;;;;;;;6.18;2.22;;;;;;;6.25;100.00;97972.44;4993358;28;20044;-80
2022/11/19 06:15:47;;;;;;;7.18;2.25;;;;;;;6.17;100.00;97961.84;4986463;28;20042;-79
2022/11/19 06:18:12;;;;;;;3.65;2.17;;;;;;;6.12;100.00;97942.81;4989054;28;20044;-79
2022/11/19 06:20:37;;;;;;;5.80;2.20;;;;;;;6.17;100.00;97956.47;4984934;28;20398;-80
2022/11/19 06:23:03;;;;;;;3.58;2.00;;;;;;;6.39;100.00;97997.53;4988462;28;20038;-76
2022/11/19 06:25:28;;;;;;;3.50;2.38;;;;;;;6.37;100.00;97994.25;4994990;28;20023;-81
2022/11/19 06:27:53;;;;;;;4.32;2.53;;;;;;;6.29;100.00;97989.84;4989571;28;20523;-76
2022/11/19 06:30:19;;;;;;;3.78;2.15;;;;;;;6.39;100.00;98002.91;4994469;28;20022;-74
2022/11/19 06:32:44;;;;;;;3.22;2.13;;;;;;;6.36;100.00;98000.63;4991702;28;20105;-78
2022/11/19 06:35:09;;;;;;;9.35;3.55;;;;;;;6.33;100.00;97995.66;5008135;28;20026;-77
2022/11/19 06:37:35;;;;;;;3.78;2.40;;;;;;;6.42;100.00;98002.53;4991307;28;20369;-77
2022/11/19 06:40:01;;;;;;;9.32;2.80;;;;;;;6.47;100.00;98007.31;4990202;28;20085;-77
2022/11/19 06:42:36;;;;;;;5.18;2.53;;;;;;;6.40;100.00;97983.09;4990795;28;20030;-76
2022/11/19 06:45:11;;;;;;;5.75;2.83;;;;;;;6.50;100.00;98015.00;5000314;28;20046;-76
2022/11/19 06:47:38;;;;;;;6.07;2.65;;;;;;;6.49;100.00;98014.13;4990934;28;20031;-77
2022/11/19 06:50:05;;;;;;;5.93;3.00;;;;;;;6.51;100.00;98011.28;4989893;28;20033;-76
2022/11/19 06:52:30;;;;;;;10.00;2.85;;;;;;;6.24;100.00;97978.84;4986301;28;20753;-78
2022/11/19 06:54:56;;;;;;;5.18;2.53;;;;;;;6.45;100.00;98010.22;4995260;28;20033;-77
2022/11/19 06:57:22;;;;;;;6.00;3.15;;;;;;;6.46;100.00;98011.03;4987983;28;20046;-77
2022/11/19 06:59:47;;;;;;;4.65;2.90;;;;;;;6.49;100.00;98018.69;4985834;28;20026;-78
2022/11/19 07:02:12;;;;;;;6.20;3.13;;;;;;;6.39;100.00;98005.59;4992380;28;20034;-77
2022/11/19 07:04:38;;;;;;;8.73;3.50;;;;;;;6.62;100.00;98034.06;4989684;28;20462;-76
2022/11/19 07:07:04;;;;;;;6.78;3.80;;;;;;;6.63;100.00;98025.81;4988035;28;20166;-77
2022/11/19 07:09:29;;;;;;;5.00;3.47;;;;;;;6.50;100.00;98006.94;4992878;28;20489;-77
2022/11/19 07:11:55;;;;;;;5.88;3.47;;;;;;;6.68;100.00;98017.16;4988409;28;20030;-77
2022/11/19 07:14:21;;;;;;;5.97;3.42;;;;;;;6.73;100.00;98023.63;5002841;28;20112;-77
2022/11/19 07:16:46;;;;;;;6.25;3.53;;;;;;;6.73;100.00;98020.06;4991238;28;20609;-78
2022/11/19 07:19:11;;;;;;;6.47;3.70;;;;;;;6.70;100.00;98013.25;4991155;28;20027;-77
2022/11/19 07:21:37;;;;;;;6.07;3.38;;;;;;;6.86;100.00;98035.47;4981527;28;20026;-78
2022/11/19 07:24:05;;;;;;;5.47;2.88;;;;;;;6.82;100.00;98018.09;4994823;28;20066;-77
2022/11/19 07:26:32;;;;;;;6.90;3.17;;;;;;;6.79;100.00;98012.06;4995638;28;20041;-77
2022/11/19 07:29:00;;;;;;;5.18;2.83;;;;;;;6.83;100.00;98006.28;4991140;28;20996;-81
2022/11/19 07:31:25;;;;;;;8.95;3.30;;;;;;;6.93;100.00;98025.56;5008578;28;20096;-82
2022/11/19 07:33:51;;;;;;;5.78;2.65;;;;;;;6.95;100.00;98027.03;4998173;28;20030;-77
2022/11/19 07:36:16;;;;;;;5.50;3.10;;;;;;;7.10;100.00;98037.66;4997810;28;20030;-78
2022/11/19 07:38:41;;;;;;;5.43;2.90;;;;;;;7.04;100.00;98016.94;4988714;28;20053;-79
2022/11/19 07:42:48;;;;;;;6.38;3.67;;;;;;;7.17;100.00;98030.44;4985842;28;20041;-80
2022/11/19 07:43:52;;;;;;;6.18;2.95;;;;;;;7.11;100.00;98007.03;4988752;28;20034;-78
2022/11/19 07:46:17;;;;;;;6.50;2.78;;;;;;;7.33;100.00;98040.00;5009494;28;20026;-80
2022/11/19 07:48:43;;;;;;;6.18;2.67;;;;;;;7.34;100.00;98048.94;5007871;28;20030;-78
2022/11/19 07:51:08;;;;;;;6.25;2.83;;;;;;;7.46;100.00;98041.94;4989756;28;20515;-78
2022/11/19 07:53:44;;;;;;;5.18;2.60;;;;;;;7.38;100.00;98036.72;4992623;28;20034;-87
2022/11/19 07:56:09;;;;;;;5.75;3.25;;;;;;;7.47;100.00;98043.59;4988263;28;20033;-76
2022/11/19 07:58:34;;;;;;;6.05;3.35;;;;;;;7.33;100.00;98020.34;4986377;28;20030;-75
2022/11/19 08:01:07;;;;;;;5.05;3.28;;;;;;;7.51;100.00;98030.56;4995147;28;20034;-76
2022/11/19 08:03:32;;;;;;;8.80;3.05;;;;;;;7.55;100.00;98032.66;4997850;28;20022;-82
2022/11/19 08:05:57;;;;;;;3.95;2.58;;;;;;;7.58;100.00;98021.47;4997519;28;20088;-83
2022/11/19 08:08:22;;;;;;;4.70;2.53;;;;;;;7.91;100.00;98012.59;4995855;28;20542;-77
2022/11/19 08:10:48;;;;;;;4.65;2.63;;;;;;;8.12;100.00;98007.06;4993320;28;20492;-75
2022/11/19 08:13:13;;;;;;;5.57;2.40;;;;;;;8.54;100.00;98034.63;4979598;28;20207;-76
2022/11/19 08:15:38;;;;;;;5.25;2.28;;;;;;;8.51;100.00;98018.03;4994329;28;20033;-80
2022/11/19 08:18:14;;;;;;;4.53;2.65;;;;;;;8.63;100.00;98024.44;4997708;28;20094;-79
2022/11/19 08:20:44;;;;;;;9.23;2.58;;;;;;;8.80;100.00;98043.69;4992684;28;20037;-77
2022/11/19 08:23:11;;;;;;;4.60;2.58;;;;;;;8.64;100.00;98017.19;4990472;28;20041;-79
2022/11/19 08:25:37;;;;;;;4.10;2.60;;;;;;;8.64;100.00;98031.47;5017921;28;20053;-82
2022/11/19 08:28:04;;;;;;;4.15;2.75;;;;;;;8.56;100.00;98039.78;4999654;28;20030;-82
2022/11/19 08:30:30;;;;;;;5.22;2.97;;;;;;;8.59;100.00;98041.25;5003374;28;20481;-79
2022/11/19 08:32:56;;;;;;;3.53;2.60;;;;;;;8.69;100.00;98055.13;4996211;28;20401;-81
2022/11/19 08:35:21;;;;;;;4.45;2.80;;;;;;;8.59;100.00;98054.72;4991599;28;20129;-75
2022/11/19 08:37:47;;;;;;;4.65;2.90;;;;;;;8.24;100.00;98011.81;4987468;28;20058;-76
2022/11/19 08:40:12;;;;;;;4.68;2.58;;;;;;;8.25;100.00;98061.97;4987578;28;20369;-77
2022/11/19 08:45:22;;;;;;;4.25;2.47;;;;;;;8.13;100.00;98043.72;4980448;28;20085;-74
2022/11/19 08:47:47;;;;;;;6.72;2.75;;;;;;;8.29;100.00;98055.13;4977486;28;20026;-76
2022/11/19 08:50:12;;;;;;;4.07;2.38;;;;;;;8.40;100.00;98059.91;4989366;28;20041;-76
2022/11/19 08:52:38;;;;;;;4.78;2.35;;;;;;;8.49;100.00;98052.47;4996245;28;20392;-78
2022/11/19 08:55:04;;;;;;;3.97;2.30;;;;;;;8.47;100.00;98055.38;4992112;28;20489;-76
2022/11/19 08:57:29;;;;;;;3.70;2.42;;;;;;;8.48;100.00;98054.31;4992146;28;20038;-75
2022/11/19 08:59:54;;;;;;;12.40;2.58;;;;;;;8.82;100.00;98065.91;4990302;28;20022;-76
2022/11/19 09:02:20;;;;;;;6.05;2.72;;;;;;;8.87;100.00;98055.31;4992204;28;20049;-76
2022/11/19 09:04:45;;;;;;;11.35;3.28;;;;;;;9.09;100.00;98073.94;4992568;28;20091;-77
2022/11/19 09:07:10;;;;;;;17.90;4.60;;;;;;;8.83;100.00;98046.00;4992968;28;20049;-75
2022/11/19 09:09:36;;;;;;;18.63;4.22;;;;;;;9.12;100.00;98085.16;4987651;28;20169;-76
2022/11/19 09:12:01;;;;;;;21.27;4.18;;;;;;;9.20;100.00;98059.81;4991666;28;20031;-76
2022/11/19 09:14:26;;;;;;;15.05;4.03;;;;;;;9.47;100.00;98057.81;4993088;28;20496;-74
2022/11/19 09:16:52;;;;;;;6.78;3.50;;;;;;;9.59;100.00;98045.31;4992587;28;20392;-72
2022/11/19 09:19:17;;;;;;;8.25;3.10;;;;;;;9.09;100.00;98060.44;4989847;28;20030;-78
2022/11/19 09:21:42;;;;;;;5.70;2.85;;;;;;;9.20;100.00;98070.59;4990820;28;20044;-71
2022/11/19 09:24:23;;;;;;;4.75;2.78;;;;;;;8.78;100.00;98059.28;4990183;28;20054;-71
2022/11/19 09:26:48;;;;;;;6.53;2.90;;;;;;;8.67;100.00;98089.56;4988912;28;20026;-72
2022/11/19 09:29:13;;;;;;;3.85;2.88;;;;;;;8.44;100.00;98096.22;4991454;28;20035;-71
2022/11/19 09:31:38;;;;;;;4.07;3.00;;;;;;;8.25;100.00;98084.38;4985543;28;20053;-70
2022/11/19 09:34:04;;;;;;;5.30;2.63;;;;;;;8.17;100.00;98081.84;4983344;28;20377;-71
2022/11/19 09:36:29;;;;;;;5.38;2.60;;;;;;;7.89;100.00;98095.50;4980779;28;20045;-69
2022/11/19 09:38:56;;;;;;;6.50;3.70;;;;;;;7.83;100.00;98112.44;4978720;28;20053;-72
2022/11/19 09:41:34;;;;;;;18.45;4.45;;;;;;;7.99;100.00;98114.78;5003863;28;20026;-71
2022/11/19 09:44:02;;;;;;;8.80;3.72;;;;;;;7.92;100.00;98097.78;4989754;28;20509;-72
2022/11/19 09:47:06;;;;;;;6.18;3.00;;;;;;;8.02;100.00;98102.78;4988675;28;20030;-70
2022/11/19 09:49:49;;;;;;;5.07;2.13;;;;;;;8.03;100.00;98097.16;4987259;28;20027;-73
2022/11/19 09:52:21;;;;;;;4.47;2.47;;;;;;;8.04;100.00;98103.38;4995291;28;20034;-72
2022/11/19 09:54:50;;;;;;;8.02;2.60;;;;;;;8.08;100.00;98105.47;4980619;28;20037;-71
2022/11/19 09:57:42;;;;;;;5.53;2.50;;;;;;;8.25;100.00;98091.59;4981994;28;20026;-72
2022/11/19 10:00:08;;;;;;;4.28;2.42;;;;;;;8.55;100.00;98095.59;4980744;28;20029;-72
2022/11/19 10:02:34;;;;;;;5.18;2.60;;;;;;;8.55;100.00;98090.19;4982563;28;20464;-73
2022/11/19 10:04:59;;;;;;;5.88;2.42;;;;;;;8.78;100.00;98088.94;5000296;28;20054;-72
2022/11/19 10:07:57;;;;;;;8.63;3.35;;;;;;;8.70;100.00;98092.69;4985195;28;20060;-71
2022/11/19 10:10:25;;;;;;;5.57;2.75;;;;;;;8.65;100.00;98094.34;4983808;28;20188;-72
2022/11/19 10:13:10;;;;;;;4.18;2.72;;;;;;;8.41;100.00;98077.78;4981588;28;20037;-71
2022/11/19 10:16:12;;;;;;;3.53;2.35;;;;;;;8.38;100.00;98094.31;4985378;28;20026;-72
2022/11/19 10:19:15;;;;;;;15.90;3.70;;;;;;;8.55;100.00;98092.06;4984261;28;20485;-73
2022/11/19 10:21:55;;;;;;;5.07;2.78;;;;;;;8.49;100.00;98080.25;4983976;28;20058;-72
2022/11/19 10:24:41;;;;;;;4.78;2.60;;;;;;;8.65;100.00;98088.97;4981828;28;20033;-71
2022/11/19 10:27:23;;;;;;;4.57;2.47;;;;;;;8.99;100.00;98086.00;4979411;28;20416;-76
2022/11/19 10:29:53;;;;;;;6.72;2.38;;;;;;;8.76;100.00;98064.06;4986290;28;20085;-71
2022/11/19 10:32:29;;;;;;;4.68;2.22;;;;;;;8.96;100.00;98066.69;4982563;28;20081;-72
2022/11/19 10:35:01;;;;;;;4.60;2.00;;;;;;;9.20;100.00;98074.13;4982416;28;20026;-71
2022/11/19 10:37:32;;;;;;;5.28;2.50;;;;;;;9.16;100.00;98078.28;4979823;28;20397;-72
2022/11/19 10:40:03;;;;;;;5.20;2.15;;;;;;;9.39;100.00;98068.84;4989756;28;20030;-72
2022/11/19 10:42:37;;;;;;;6.00;2.20;;;;;;;9.21;100.00;98075.75;4989196;28;20034;-72
2022/11/19 10:45:17;;;;;;;5.60;2.10;;;;;;;9.28;100.00;98058.75;4987381;28;20493;-74
2022/11/19 10:47:53;;;;;;;4.45;2.08;;;;;;;9.09;100.00;98071.22;4980295;28;20062;-73
2022/11/19 10:50:24;;;;;;;3.08;1.70;;;;;;;9.02;100.00;98068.56;4984937;28;20062;-73
2022/11/19 10:53:16;;;;;;;6.05;2.28;;;;;;;8.82;100.00;98079.38;4984072;28;20026;-72
2022/11/19 10:55:46;;;;;;;5.72;2.72;;;;;;;8.75;100.00;98073.16;4981262;28;20456;-73
2022/11/19 10:58:26;;;;;;;6.13;2.00;;;;;;;8.60;100.00;98078.78;4981453;28;20084;-73
2022/11/19 11:00:54;;;;;;;7.28;2.00;;;;;;;8.51;100.00;98072.78;4986505;28;20082;-78
2022/11/19 11:03:27;;;;;;;10.15;2.42;;;;;;;8.43;100.00;98069.47;4990522;28;20058;-77
2022/11/19 11:05:56;;;;;;;3.75;2.17;;;;;;;8.27;100.00;98076.88;4989355;28;20030;-69
2022/11/19 11:08:21;;;;;;;7.93;2.72;;;;;;;8.35;100.00;98057.00;4994721;28;20092;-72
2022/11/19 11:10:47;;;;;;;22.88;7.57;;;;;;;8.44;100.00;98065.75;4993294;28;20026;-73
2022/11/19 11:16:12;;;;;;;7.75;3.75;;;;;;;8.12;100.00;98077.09;4995573;28;20416;-74
2022/11/19 11:18:39;;;;;;;7.90;2.97;;;;;;;7.96;100.00;98082.03;4988432;28;20045;-72
2022/11/19 11:21:09;;;;;;;6.15;2.50;;;;;;;7.87;100.00;98087.59;4990595;28;20030;-78
2022/11/19 11:23:47;;;;;;;5.53;2.50;;;;;;;7.89;100.00;98073.94;4994183;28;20019;-79
2022/11/19 11:26:19;;;;;;;7.07;2.40;;;;;;;7.94;100.00;98086.78;4987322;28;20400;-81
2022/11/19 11:29:00;;;;;;;5.40;2.50;;;;;;;7.76;100.00;98071.22;5007273;28;20030;-76
2022/11/19 11:31:33;;;;;;;4.28;2.63;;;;;;;7.87;100.00;98076.84;4992387;28;20488;-76
2022/11/19 11:34:01;;;;;;;5.55;2.40;;;;;;;8.02;100.00;98075.84;4991493;28;20858;-77
2022/11/19 11:36:29;;;;;;;7.30;2.30;;;;;;;8.27;100.00;98076.06;4990892;28;20030;-79
2022/11/19 11:38:56;;;;;;;5.78;2.47;;;;;;;8.25;100.00;98073.59;4981218;28;20121;-77
2022/11/19 11:41:32;;;;;;;3.13;2.00;;;;;;;8.33;100.00;98086.00;4989937;28;20022;-76
2022/11/19 11:44:01;;;;;;;5.55;2.42;;;;;;;7.98;100.00;98048.47;4993430;28;20026;-77
2022/11/19 11:46:43;;;;;;;3.30;2.15;;;;;;;8.09;100.00;98057.81;4992909;28;20030;-72
2022/11/19 11:49:28;;;;;;;4.85;2.00;;;;;;;8.05;100.00;98046.63;4983085;28;20107;-75
2022/11/19 11:52:11;;;;;;;4.28;1.67;;;;;;;8.13;100.00;98069.84;4988453;28;20034;-76
2022/11/19 11:54:59;;;;;;;4.05;2.08;;;;;;;8.14;100.00;98068.78;4992264;28;20037;-73
2022/11/19 11:57:28;;;;;;;6.30;1.73;;;;;;;7.91;100.00;98044.94;4989783;28;20081;-75
2022/11/19 11:59:53;;;;;;;;;;;;;;;7.98;100.00;98070.00;4986256;28;20498;-74
2022/11/19 12:02:29;;;;;;;4.25;1.58;;;;;;;8.10;100.00;98065.69;4982497;28;19917;-73
2022/11/19 12:04:58;;;;;;;6.47;1.60;;;;;;;7.85;100.00;98051.16;5000825;28;20121;-74